createdAt,value
2019-04-22T00:00:44.585Z,50.60
2019-04-22T00:02:54.509Z,50.50
2019-04-22T00:05:04.740Z,50.40
2019-04-22T00:07:22.165Z,50.40
2019-04-22T00:09:34.112Z,50.60
2019-04-22T00:11:36.368Z,50.70
2019-04-22T00:13:45.789Z,50.80
2019-04-22T00:15:44.059Z,50.80
2019-04-22T00:18:03.298Z,51.00
2019-04-22T00:20:06.078Z,50.90
2019-04-22T00:22:09.459Z,51.20
2019-04-22T00:24:10.715Z,51.20
2019-04-22T00:26:16.442Z,51.40
2019-04-22T00:28:21.515Z,51.40
2019-04-22T00:30:41.900Z,51.40
2019-04-22T00:32:49.551Z,51.60
2019-04-22T00:35:01.941Z,51.80
2019-04-22T00:37:00.986Z,51.70
2019-04-22T00:39:18.498Z,51.90
2019-04-22T00:41:14.636Z,52.20
2019-04-22T00:43:24.345Z,52.20
2019-04-22T00:45:29.477Z,52.40
2019-04-22T00:47:32.422Z,53.20
2019-04-22T00:50:06.788Z,52.50
2019-04-22T00:52:03.681Z,52.50
2019-04-22T00:53:48.117Z,52.60
2019-04-22T00:56:01.516Z,52.80
2019-04-22T00:58:12.273Z,52.90
2019-04-22T01:00:12.608Z,52.90
2019-04-22T01:02:20.362Z,53.00
2019-04-22T01:04:29.118Z,53.60
2019-04-22T01:06:27.074Z,53.70
2019-04-22T01:08:40.491Z,53.70
2019-04-22T01:11:06.235Z,53.90
2019-04-22T01:12:44.385Z,53.80
2019-04-22T01:14:57.331Z,53.90
2019-04-22T01:19:00.813Z,54.30
2019-04-22T01:21:16.449Z,54.20
2019-04-22T01:23:15.716Z,54.30
2019-04-22T01:25:21.686Z,54.40
2019-04-22T01:27:20.592Z,54.30
2019-04-22T01:29:25.279Z,54.10
2019-04-22T01:31:20.426Z,54.20
2019-04-22T01:33:31.102Z,54.40
2019-04-22T01:35:38.651Z,54.50
2019-04-22T01:37:49.556Z,54.70
2019-04-22T01:40:06.569Z,54.90
2019-04-22T01:46:25.887Z,56.10
2019-04-22T01:48:32.572Z,56.40
2019-04-22T01:50:37.263Z,56.40
2019-04-22T01:52:47.173Z,57.10
2019-04-22T01:54:52.703Z,57.50
2019-04-22T01:56:54.036Z,57.70
2019-04-22T01:58:50.302Z,58.10
2019-04-22T02:01:09.807Z,58.60
2019-04-22T02:03:24.431Z,58.90
2019-04-22T02:05:17.761Z,59.50
2019-04-22T02:07:25.405Z,59.60
2019-04-22T02:11:48.755Z,60.20
2019-04-22T02:13:48.027Z,60.90
2019-04-22T02:15:52.433Z,61.30
2019-04-22T02:18:01.341Z,61.50
2019-04-22T02:20:07.208Z,61.60
2019-04-22T02:22:11.650Z,62.10
2019-04-22T02:24:09.728Z,62.80
2019-04-22T02:26:23.386Z,63.10
2019-04-22T02:28:32.516Z,63.60
2019-04-22T02:30:36.393Z,63.80
2019-04-22T02:34:50.774Z,65.00
2019-04-22T02:37:04.858Z,64.20
2019-04-22T02:41:21.099Z,64.60
2019-04-22T02:43:12.558Z,65.00
2019-04-22T02:45:18.294Z,65.20
2019-04-22T02:47:20.818Z,65.70
2019-04-22T02:49:39.870Z,65.70
2019-04-22T02:51:38.670Z,66.80
2019-04-22T02:54:17.417Z,66.10
2019-04-22T02:55:49.304Z,66.30
2019-04-22T03:00:01.001Z,67.00
2019-04-22T03:01:53.276Z,67.60
2019-04-22T03:04:18.833Z,68.60
2019-04-22T03:06:38.379Z,68.60
2019-04-22T03:08:41.727Z,68.90
2019-04-22T03:10:54.704Z,69.50
2019-04-22T03:12:41.320Z,70.10
2019-04-22T03:14:48.560Z,70.80
2019-04-22T03:17:17.652Z,71.30
2019-04-22T03:21:16.002Z,72.00
2019-04-22T03:23:25.034Z,72.60
2019-04-22T03:27:21.915Z,73.70
2019-04-22T03:35:16.123Z,75.00
2019-04-22T03:37:02.451Z,75.30
2019-04-22T03:38:45.665Z,75.50
2019-04-22T04:42:36.317Z,80.10
2019-04-22T04:44:48.291Z,80.00
2019-04-22T04:46:45.081Z,79.80
2019-04-22T04:51:00.441Z,79.30
2019-04-22T04:53:09.895Z,79.40
2019-04-22T04:57:26.285Z,79.30
2019-04-22T05:07:38.213Z,78.60
2019-04-22T05:09:52.605Z,78.50
2019-04-22T05:11:54.379Z,78.20
2019-04-22T05:14:05.509Z,78.10
2019-04-22T05:16:10.725Z,77.80
2019-04-22T05:18:05.925Z,77.50
2019-04-22T05:20:13.434Z,77.30
2019-04-22T05:22:06.069Z,77.00
2019-04-22T05:24:19.816Z,77.00
2019-04-22T05:26:22.748Z,77.00
2019-04-22T05:28:24.383Z,76.70
2019-04-22T05:30:56.688Z,76.40
2019-04-22T05:32:40.166Z,76.10
2019-04-22T05:34:52.896Z,75.90
2019-04-22T05:36:48.085Z,75.80
2019-04-22T05:38:53.641Z,75.80
2019-04-22T05:40:56.502Z,75.70
2019-04-22T05:43:02.286Z,75.90
2019-04-22T05:45:10.239Z,75.10
2019-04-22T05:47:14.793Z,74.80
2019-04-22T05:49:18.277Z,75.20
2019-04-22T05:51:25.921Z,75.10
2019-04-22T05:53:25.452Z,74.50
2019-04-22T05:55:35.965Z,74.40
2019-04-22T05:57:37.225Z,74.50
2019-04-22T05:59:57.239Z,74.40
2019-04-22T06:01:57.227Z,74.00
2019-04-22T06:04:08.448Z,74.30
2019-04-22T06:06:01.541Z,74.20
2019-04-22T06:08:11.639Z,74.20
2019-04-22T06:10:17.369Z,74.00
2019-04-22T06:12:19.100Z,74.00
2019-04-22T06:14:28.899Z,73.40
2019-04-22T06:16:38.082Z,73.20
2019-04-22T06:18:44.869Z,73.10
2019-04-22T06:22:58.525Z,73.00
2019-04-22T06:25:00.986Z,72.80
2019-04-22T06:29:16.559Z,72.60
2019-04-22T06:33:26.748Z,72.20
2019-04-22T06:37:46.402Z,71.70
2019-04-22T06:41:47.836Z,70.70
2019-04-22T06:43:58.604Z,70.70
2019-04-22T06:46:00.745Z,70.20
2019-04-22T06:48:06.816Z,69.90
2019-04-22T06:50:31.474Z,70.10
2019-04-22T06:54:22.061Z,69.40
2019-04-22T06:56:27.384Z,68.40
2019-04-22T06:58:36.626Z,68.30
2019-04-22T07:00:43.491Z,68.00
2019-04-22T07:03:10.955Z,67.60
2019-04-22T07:04:49.406Z,67.50
2019-04-22T07:09:22.016Z,67.90
2019-04-22T07:11:01.712Z,67.60
2019-04-22T07:13:19.098Z,67.10
2019-04-22T07:15:40.199Z,66.80
2019-04-22T07:17:31.066Z,67.00
2019-04-22T07:19:36.228Z,66.60
2019-04-22T07:21:37.336Z,66.50
2019-04-22T07:25:49.932Z,67.70
2019-04-22T07:27:52.373Z,67.50
2019-04-22T07:30:03.565Z,67.40
2019-04-22T07:34:16.080Z,65.90
2019-04-22T07:38:25.657Z,65.00
2019-04-22T07:40:34.086Z,64.70
2019-04-22T07:44:38.434Z,64.40
2019-04-22T07:48:59.411Z,62.90
2019-04-22T07:51:05.522Z,62.50
2019-04-22T07:53:08.375Z,62.20
2019-04-22T07:55:05.580Z,62.50
2019-04-22T07:57:20.154Z,63.10
2019-04-22T07:59:22.241Z,63.80
2019-04-22T08:01:26.392Z,64.10
2019-04-22T08:03:38.080Z,64.10
2019-04-22T08:05:48.017Z,63.60
2019-04-22T08:07:43.062Z,64.30
2019-04-22T08:10:02.997Z,64.50
2019-04-22T08:11:53.988Z,64.20
2019-04-22T08:13:58.708Z,64.60
2019-04-22T08:18:32.253Z,63.10
2019-04-22T08:20:24.609Z,63.50
2019-04-22T08:22:21.428Z,63.00
2019-04-22T08:24:36.268Z,62.10
2019-04-22T08:26:33.271Z,62.60
2019-04-22T08:28:49.084Z,61.50
2019-04-22T08:30:47.738Z,60.40
2019-04-22T08:32:53.079Z,59.90
2019-04-22T08:35:00.608Z,59.60
2019-04-22T08:37:36.977Z,59.10
2019-04-22T08:41:28.521Z,59.20
2019-04-22T08:43:37.943Z,59.20
2019-04-22T08:45:38.459Z,59.40
2019-04-22T08:47:41.789Z,59.30
2019-04-22T08:49:57.107Z,59.00
2019-04-22T08:51:49.360Z,57.60
2019-04-22T08:54:10.198Z,57.30
2019-04-22T08:56:22.004Z,57.00
2019-04-22T08:58:21.371Z,56.60
2019-04-22T09:00:15.431Z,56.20
2019-04-22T09:02:25.871Z,56.20
2019-04-22T09:04:16.159Z,56.30
2019-04-22T09:08:41.768Z,57.00
2019-04-22T09:10:43.582Z,56.50
2019-04-22T09:12:56.722Z,56.50
2019-04-22T09:14:49.549Z,56.40
2019-04-22T09:17:07.514Z,55.20
2019-04-22T09:19:08.257Z,55.20
2019-04-22T09:21:18.592Z,54.50
2019-04-22T09:23:23.557Z,54.70
2019-04-22T09:25:27.487Z,54.70
2019-04-22T09:27:37.001Z,53.00
2019-04-22T09:32:01.785Z,52.90
2019-04-22T09:33:43.369Z,52.40
2019-04-22T09:35:52.314Z,53.10
2019-04-22T09:40:07.278Z,52.30
2019-04-22T09:42:04.916Z,52.30
2019-04-22T09:44:08.087Z,51.40
2019-04-22T09:46:26.902Z,51.00
2019-04-22T09:48:30.137Z,50.50
2019-04-22T09:50:38.449Z,51.30
2019-04-22T09:52:44.019Z,52.00
2019-04-22T09:54:57.565Z,50.70
2019-04-22T09:56:49.229Z,51.00
2019-04-22T09:58:58.562Z,50.80
2019-04-22T10:01:20.253Z,51.10
2019-04-22T10:03:13.711Z,51.50
2019-04-22T10:05:21.077Z,51.10
2019-04-22T10:07:25.917Z,51.40
2019-04-22T10:11:42.252Z,51.30
2019-04-22T10:13:47.628Z,52.10
2019-04-22T10:15:59.007Z,52.10
2019-04-22T10:17:57.943Z,52.40
2019-04-22T10:19:59.646Z,52.70
2019-04-22T10:22:08.567Z,53.20
2019-04-22T10:26:22.101Z,52.20
2019-04-22T10:28:23.163Z,51.10
2019-04-22T10:30:38.386Z,50.30
2019-04-22T10:32:37.616Z,50.30
2019-04-22T10:34:27.679Z,49.50
2019-04-22T10:36:23.518Z,49.60
2019-04-22T10:38:28.392Z,48.90
2019-04-22T10:40:34.565Z,49.50
2019-04-22T10:42:43.147Z,49.70
2019-04-22T10:44:48.519Z,49.50
2019-04-22T10:46:53.855Z,50.00
2019-04-22T10:48:58.152Z,50.30
2019-04-22T10:51:02.188Z,50.80
2019-04-22T10:53:07.675Z,50.50
2019-04-22T10:55:11.882Z,50.20
2019-04-22T10:57:15.987Z,50.10
2019-04-22T10:59:20.632Z,50.80
2019-04-22T11:01:25.670Z,51.20
2019-04-22T11:03:30.983Z,51.60
2019-04-22T11:05:35.239Z,51.30
2019-04-22T11:07:43.989Z,50.80
2019-04-22T11:09:52.081Z,51.10
2019-04-22T11:11:58.436Z,51.10
2019-04-22T11:13:56.076Z,51.30
2019-04-22T11:16:00.563Z,52.30
2019-04-22T11:18:07.846Z,51.50
2019-04-22T11:20:13.579Z,52.30
2019-04-22T11:22:22.957Z,52.80
2019-04-22T11:24:23.176Z,52.00
2019-04-22T11:26:28.287Z,52.70
2019-04-22T11:28:33.763Z,52.50
2019-04-22T11:30:38.755Z,51.50
2019-04-22T11:32:42.852Z,51.20
2019-04-22T11:34:47.085Z,50.90
2019-04-22T11:36:52.598Z,49.90
2019-04-22T11:39:02.044Z,50.60
2019-04-22T11:41:03.475Z,50.90
2019-04-22T11:43:08.074Z,51.20
2019-04-22T11:45:13.207Z,51.40
2019-04-22T11:47:17.379Z,49.30
2019-04-22T11:49:21.841Z,48.40
2019-04-22T11:51:25.710Z,49.80
2019-04-22T11:53:30.926Z,48.80
2019-04-22T11:55:35.050Z,48.40
2019-04-22T11:57:39.244Z,49.40
2019-04-22T11:59:44.819Z,50.10
2019-04-22T12:01:48.851Z,50.10
2019-04-22T12:03:53.868Z,50.20
2019-04-22T12:05:58.157Z,50.30
2019-04-22T12:08:03.003Z,50.20
2019-04-22T12:10:19.241Z,49.60
2019-04-22T12:12:14.038Z,50.10
2019-04-22T12:14:18.173Z,50.20
2019-04-22T12:16:23.296Z,50.70
2019-04-22T12:18:27.324Z,51.60
2019-04-22T12:20:33.288Z,52.10
2019-04-22T12:22:38.923Z,51.70
2019-04-22T12:24:43.349Z,50.60
2019-04-22T12:26:48.377Z,49.30
2019-04-22T12:28:53.247Z,47.70
2019-04-22T12:30:57.385Z,46.90
2019-04-22T12:33:02.412Z,45.60
2019-04-22T12:35:07.368Z,46.20
2019-04-22T12:37:17.476Z,45.30
2019-04-22T12:39:17.886Z,44.20
2019-04-22T12:41:21.817Z,45.10
2019-04-22T12:43:26.430Z,45.80
2019-04-22T12:45:31.989Z,46.80
2019-04-22T12:47:36.025Z,46.80
2019-04-22T12:49:42.332Z,46.90
2019-04-22T12:51:47.168Z,47.00
2019-04-22T12:53:52.620Z,46.60
2019-04-22T12:55:57.391Z,46.10
2019-04-22T12:58:03.641Z,46.50
2019-04-22T13:00:11.378Z,48.00
2019-04-22T13:02:15.751Z,47.60
2019-04-22T13:04:21.689Z,48.60
2019-04-22T13:06:25.826Z,49.30
2019-04-22T13:08:29.869Z,48.50
2019-04-22T13:10:45.724Z,47.70
2019-04-22T13:12:40.091Z,47.30
2019-04-22T13:14:45.424Z,46.40
2019-04-22T13:16:51.211Z,44.90
2019-04-22T13:19:00.149Z,44.30
2019-04-22T13:21:02.049Z,42.80
2019-04-22T13:23:07.583Z,41.80
2019-04-22T13:25:12.863Z,42.50
2019-04-22T13:27:17.205Z,43.30
2019-04-22T13:29:21.318Z,42.50
2019-04-22T13:31:26.727Z,43.70
2019-04-22T13:33:30.891Z,43.50
2019-04-22T13:35:36.096Z,43.00
2019-04-22T13:37:41.097Z,42.00
2019-04-22T13:39:45.196Z,40.90
2019-04-22T13:41:54.566Z,39.00
2019-04-22T13:43:56.089Z,40.00
2019-04-22T13:46:01.698Z,39.80
2019-04-22T13:48:24.592Z,40.00
2019-04-22T13:50:49.420Z,39.20
2019-04-22T13:56:51.909Z,40.50
2019-04-22T13:58:53.041Z,40.60
2019-04-22T14:00:46.816Z,40.40
2019-04-22T14:02:52.821Z,39.70
2019-04-22T14:04:56.887Z,38.40
2019-04-22T14:07:00.977Z,38.00
2019-04-22T14:09:07.457Z,37.40
2019-04-22T14:11:23.299Z,37.40
2019-04-22T14:13:17.171Z,37.00
2019-04-22T14:15:22.309Z,37.50
2019-04-22T14:17:27.084Z,37.20
2019-04-22T14:19:32.239Z,38.10
2019-04-22T14:21:36.801Z,37.40
2019-04-22T14:23:42.219Z,36.90
2019-04-22T14:25:46.487Z,36.00
2019-04-22T14:27:58.420Z,35.90
2019-04-22T14:29:55.968Z,35.50
2019-04-22T14:32:08.615Z,34.40
2019-04-22T14:34:07.725Z,34.10
2019-04-22T14:36:11.686Z,34.00
2019-04-22T14:38:16.226Z,34.20
2019-04-22T14:40:22.985Z,34.40
2019-04-22T14:42:44.078Z,33.60
2019-04-22T14:47:11.596Z,34.00
2019-04-22T14:49:06.079Z,33.20
2019-04-22T14:51:07.130Z,33.20
2019-04-22T14:53:14.457Z,33.40
2019-04-22T14:55:07.991Z,33.50
2019-04-22T14:57:05.482Z,33.00
2019-04-22T14:59:09.426Z,32.20
2019-04-22T15:01:14.781Z,31.90
2019-04-22T15:03:19.690Z,31.60
2019-04-22T15:05:23.942Z,31.70
2019-04-22T15:07:28.781Z,31.40
2019-04-22T15:09:34.131Z,31.00
2019-04-22T15:11:52.848Z,32.30
2019-04-22T15:13:45.150Z,33.90
2019-04-22T15:15:52.579Z,33.40
2019-04-22T15:17:58.847Z,33.50
2019-04-22T15:20:16.764Z,33.50
2019-04-22T15:22:20.972Z,34.40
2019-04-22T15:24:25.810Z,34.70
2019-04-22T15:26:30.996Z,35.30
2019-04-22T15:28:35.540Z,35.20
2019-04-22T15:30:39.671Z,35.60
2019-04-22T15:32:43.620Z,36.20
2019-04-22T15:34:48.877Z,36.40
2019-04-22T15:36:53.938Z,36.70
2019-04-22T15:38:59.368Z,36.60
2019-04-22T15:41:04.880Z,36.90
2019-04-22T15:43:10.839Z,37.30
2019-04-22T15:45:16.476Z,37.00
2019-04-22T15:47:20.799Z,36.50
2019-04-22T15:49:27.734Z,36.60
2019-04-22T15:51:32.193Z,36.50
2019-04-22T15:53:36.100Z,36.10
2019-04-22T15:55:40.944Z,35.20
2019-04-22T15:57:45.749Z,34.90
2019-04-22T16:00:06.720Z,34.60
2019-04-22T16:01:58.638Z,34.70
2019-04-22T16:04:00.840Z,34.80
2019-04-22T16:06:05.968Z,34.40
2019-04-22T16:08:10.880Z,34.10
2019-04-22T16:10:15.741Z,34.20
2019-04-22T16:12:27.946Z,34.50
2019-04-22T16:14:32.790Z,34.20
2019-04-22T16:16:32.360Z,34.30
2019-04-22T16:18:36.420Z,34.20
2019-04-22T16:20:40.508Z,33.90
2019-04-22T16:23:03.462Z,34.40
2019-04-22T16:25:20.981Z,35.20
2019-04-22T16:27:26.640Z,35.70
2019-04-22T16:29:31.565Z,36.20
2019-04-22T16:31:35.735Z,36.80
2019-04-22T16:33:41.748Z,37.10
2019-04-22T16:35:46.657Z,37.50
2019-04-22T16:37:50.854Z,37.90
2019-04-22T16:39:54.813Z,38.50
2019-04-22T16:42:00.438Z,39.20
2019-04-22T16:44:06.744Z,39.80
2019-04-22T16:46:11.720Z,40.10
2019-04-22T16:48:15.956Z,40.70
2019-04-22T16:50:20.922Z,41.20
2019-04-22T16:52:25.960Z,41.20
2019-04-22T16:54:30.719Z,41.60
2019-04-22T16:56:37.030Z,41.90
2019-04-22T16:58:41.017Z,42.30
2019-04-22T17:00:46.958Z,42.30
2019-04-22T17:02:58.717Z,42.50
2019-04-22T17:05:13.840Z,42.30
2019-04-22T17:07:20.223Z,41.80
2019-04-22T17:09:25.828Z,41.40
2019-04-22T17:11:29.926Z,41.20
2019-04-22T17:13:34.669Z,40.90
2019-04-22T17:15:39.710Z,40.70
2019-04-22T17:17:45.209Z,39.70
2019-04-22T17:19:49.345Z,39.70
2019-04-22T17:21:53.506Z,39.90
2019-04-22T17:23:57.614Z,40.00
2019-04-22T17:26:02.706Z,40.10
2019-04-22T17:28:07.776Z,40.10
2019-04-22T17:30:12.907Z,40.40
2019-04-22T17:32:19.285Z,40.50
2019-04-22T17:34:23.443Z,40.60
2019-04-22T17:36:29.839Z,40.90
2019-04-22T17:38:43.791Z,41.00
2019-04-22T17:40:56.200Z,40.90
2019-04-22T17:43:06.664Z,41.10
2019-04-22T17:45:31.731Z,41.30
2019-04-22T17:47:25.442Z,41.50
2019-04-22T17:49:53.720Z,41.90
2019-04-22T17:52:10.701Z,42.10
2019-04-22T17:54:15.228Z,42.40
2019-04-22T17:56:24.566Z,42.60
2019-04-22T17:58:25.869Z,42.80
2019-04-22T18:00:30.066Z,43.10
2019-04-22T18:02:33.969Z,43.50
2019-04-22T18:04:23.382Z,43.40
2019-04-22T18:06:57.459Z,43.60
2019-04-22T18:08:50.611Z,43.80
2019-04-22T18:10:59.867Z,43.90
2019-04-22T18:13:14.327Z,43.80
2019-04-22T18:15:11.334Z,44.00
2019-04-22T18:17:19.304Z,43.90
2019-04-22T18:19:19.603Z,43.80
2019-04-22T18:21:23.268Z,43.80
2019-04-22T18:23:19.633Z,43.90
2019-04-22T18:25:33.930Z,43.80
2019-04-22T18:27:55.102Z,43.70
2019-04-22T18:29:48.536Z,43.90
2019-04-22T18:31:49.005Z,44.10
2019-04-22T18:33:55.619Z,44.00
2019-04-22T18:36:06.847Z,44.10
2019-04-22T18:38:19.796Z,44.30
2019-04-22T18:40:18.576Z,44.30
2019-04-22T18:42:17.412Z,44.20
2019-04-22T18:44:27.163Z,44.30
2019-04-22T18:46:31.524Z,44.50
2019-04-22T18:48:38.909Z,44.70
2019-04-22T18:51:00.183Z,44.90
2019-04-22T18:53:17.129Z,45.00
2019-04-22T18:55:16.359Z,45.10
2019-04-22T18:57:23.910Z,45.20
2019-04-22T18:59:17.475Z,45.20
2019-04-22T19:01:17.782Z,45.60
2019-04-22T19:03:26.328Z,45.90
2019-04-22T19:05:46.799Z,46.00
2019-04-22T19:08:03.132Z,46.00
2019-04-22T19:10:09.947Z,46.30
2019-04-22T19:12:19.691Z,46.30
2019-04-22T19:14:20.597Z,46.50
2019-04-22T19:16:30.851Z,47.10
2019-04-22T19:18:34.630Z,47.20
2019-04-22T19:20:38.068Z,47.40
2019-04-22T19:22:49.204Z,47.70
2019-04-22T19:24:41.845Z,47.60
2019-04-22T19:29:03.805Z,48.10
2019-04-22T19:31:09.222Z,48.20
2019-04-22T19:33:10.991Z,48.50
2019-04-22T19:35:12.830Z,48.70
2019-04-22T19:37:17.355Z,49.00
2019-04-22T19:39:26.545Z,49.30
2019-04-22T19:41:37.128Z,49.40
2019-04-22T19:43:39.287Z,49.70
2019-04-22T19:45:42.118Z,49.80
2019-04-22T19:48:05.281Z,49.90
2019-04-22T19:50:09.004Z,50.00
2019-04-22T19:52:11.365Z,50.10
2019-04-22T19:54:07.836Z,50.20
2019-04-22T19:56:11.790Z,50.30
2019-04-22T19:58:20.120Z,50.40
2019-04-22T20:00:34.007Z,50.50
2019-04-22T20:02:44.770Z,50.60
2019-04-22T20:05:06.253Z,50.60
2019-04-22T20:07:06.719Z,50.80
2019-04-22T20:09:20.623Z,50.90
2019-04-22T20:11:23.238Z,50.90
2019-04-22T20:13:30.980Z,50.90
2019-04-22T20:15:26.572Z,50.90
2019-04-22T20:17:55.873Z,51.00
2019-04-22T20:19:49.722Z,51.00
2019-04-22T20:21:53.420Z,51.10
2019-04-22T20:23:45.661Z,51.10
2019-04-22T20:25:51.149Z,51.20
2019-04-22T20:28:05.876Z,51.20
2019-04-22T20:30:13.746Z,51.30
2019-04-22T20:32:18.824Z,51.20
2019-04-22T20:34:23.880Z,50.90
2019-04-22T20:36:53.096Z,50.70
2019-04-22T20:38:34.380Z,50.60
2019-04-22T20:40:41.370Z,50.50
2019-04-22T20:43:01.733Z,50.30
2019-04-22T20:45:05.403Z,50.20
2019-04-22T20:47:10.585Z,50.10
2019-04-22T20:49:20.028Z,50.00
2019-04-22T20:51:38.543Z,50.10
2019-04-22T20:53:35.853Z,50.50
2019-04-22T20:55:42.171Z,50.60
2019-04-22T20:57:56.033Z,50.80
2019-04-22T20:59:57.657Z,51.00
2019-04-22T21:02:11.495Z,51.20
2019-04-22T21:04:01.362Z,51.20
2019-04-22T21:06:23.145Z,51.10
2019-04-22T21:08:38.913Z,51.10
2019-04-22T21:10:35.923Z,51.20
2019-04-22T21:12:36.203Z,51.40
2019-04-22T21:14:58.588Z,51.50
2019-04-22T21:16:59.194Z,51.60
2019-04-22T21:19:11.758Z,51.60
2019-04-22T21:21:15.117Z,51.50
2019-04-22T21:23:17.780Z,51.30
2019-04-22T21:25:17.790Z,51.20
2019-04-22T21:27:37.066Z,51.20
2019-04-22T21:29:30.678Z,50.90
2019-04-22T21:31:38.925Z,50.60
2019-04-22T21:33:48.761Z,50.60
2019-04-22T21:35:59.483Z,50.60
2019-04-22T21:38:06.204Z,50.70
2019-04-22T21:39:58.702Z,50.70
2019-04-22T21:42:09.088Z,50.80
2019-04-22T21:44:14.046Z,50.90
2019-04-22T21:46:23.267Z,50.90
2019-04-22T21:48:31.146Z,50.90
2019-04-22T21:50:41.364Z,50.70
2019-04-22T21:52:40.576Z,50.70
2019-04-22T21:54:46.945Z,50.60
2019-04-22T21:57:07.759Z,50.50
2019-04-22T21:59:05.233Z,50.40
2019-04-22T22:01:17.087Z,50.30
2019-04-22T22:03:18.953Z,50.30
2019-04-22T22:05:15.480Z,50.40
2019-04-22T22:07:13.909Z,50.40
2019-04-22T22:09:33.426Z,50.30
2019-04-22T22:11:35.829Z,50.50
2019-04-22T22:13:45.426Z,50.70
2019-04-22T22:15:52.384Z,50.60
2019-04-22T22:17:55.511Z,50.70
2019-04-22T22:19:57.971Z,50.80
2019-04-22T22:22:15.204Z,50.90
2019-04-22T22:24:21.115Z,51.30
2019-04-22T22:26:15.259Z,51.30
2019-04-22T22:28:41.448Z,51.40
2019-04-22T22:32:43.824Z,51.40
2019-04-22T22:34:46.243Z,51.20
2019-04-22T22:36:40.456Z,51.70
2019-04-22T22:38:46.796Z,51.80
2019-04-22T22:40:43.681Z,51.90
2019-04-22T22:42:49.918Z,52.00
2019-04-22T22:45:00.664Z,52.00
2019-04-22T22:47:16.603Z,51.90
2019-04-22T22:49:26.453Z,51.70
2019-04-22T22:51:34.151Z,51.70
2019-04-22T22:53:40.382Z,51.70
2019-04-22T22:55:39.773Z,51.80
2019-04-22T22:57:44.297Z,51.80
2019-04-22T22:59:50.834Z,51.80
2019-04-22T23:01:55.710Z,51.70
2019-04-22T23:04:02.287Z,51.80
2019-04-22T23:06:12.794Z,51.90
2019-04-22T23:08:16.580Z,52.00
2019-04-22T23:10:16.137Z,51.90
2019-04-22T23:12:35.098Z,51.90
2019-04-22T23:14:34.450Z,51.80
2019-04-22T23:16:28.193Z,51.80
2019-04-22T23:18:21.812Z,51.80
2019-04-22T23:20:33.420Z,51.70
2019-04-22T23:22:50.981Z,51.70
2019-04-22T23:24:54.471Z,51.60
2019-04-22T23:27:04.315Z,51.60
2019-04-22T23:29:11.823Z,51.80
2019-04-22T23:31:13.991Z,51.70
2019-04-22T23:33:30.853Z,51.70
2019-04-22T23:35:48.832Z,51.70
2019-04-22T23:37:57.294Z,51.60
2019-04-22T23:40:13.940Z,51.50
2019-04-22T23:42:19.459Z,51.60
2019-04-22T23:44:20.202Z,51.60
2019-04-22T23:46:19.970Z,51.80
2019-04-22T23:48:19.177Z,52.00
2019-04-22T23:50:30.712Z,52.00
2019-04-22T23:52:44.827Z,52.20
2019-04-22T23:54:51.025Z,52.30
2019-04-22T23:56:48.002Z,52.40
2019-04-22T23:59:01.195Z,52.40
